Time;durP1;ratioP1;P1;durP2;ratioP2;P2;SDS_P1;SDS_P2;PMS_P1;PMS_P2;Temp;Humidity;BMP_temperature;BMP_pressure;BME280_temperature;BME280_humidity;BME280_pressure;Samples;Min_cycle;Max_cycle;Signal;HPM_P1;HPM_P2
2020/12/04 00:01:46;;;;;;;16.73;6.82;;;2.10;99.90;;;;;;5078087;28;20032;-67
2020/12/04 00:04:13;;;;;;;16.20;6.45;;;2.10;99.90;;;;;;5077860;28;20302;-67
2020/12/04 00:06:41;;;;;;;18.02;7.32;;;2.10;99.70;;;;;;5072846;28;20040;-67
2020/12/04 00:09:09;;;;;;;16.13;6.65;;;2.10;99.90;;;;;;5097874;28;20301;-66
2020/12/04 00:11:36;;;;;;;13.30;5.80;;;2.10;99.90;;;;;;5098053;28;20414;-67
2020/12/04 00:14:04;;;;;;;14.23;6.18;;;2.20;99.90;;;;;;5097415;28;20044;-67
2020/12/04 00:16:32;;;;;;;15.35;6.60;;;2.20;99.90;;;;;;5096808;28;20096;-67
2020/12/04 00:18:59;;;;;;;13.63;6.50;;;2.20;99.90;;;;;;5097855;28;20023;-67
2020/12/04 00:21:27;;;;;;;14.90;6.18;;;2.20;99.80;;;;;;5097736;28;20066;-67
2020/12/04 00:23:54;;;;;;;15.27;7.60;;;2.20;99.90;;;;;;5097771;28;20024;-67
2020/12/04 00:26:23;;;;;;;14.38;7.05;;;2.20;99.90;;;;;;5097862;28;20097;-67
2020/12/04 00:28:50;;;;;;;16.95;7.57;;;2.20;99.90;;;;;;5097781;28;20059;-67
2020/12/04 00:31:18;;;;;;;17.73;7.28;;;2.20;99.90;;;;;;5098149;28;20024;-67
2020/12/04 00:33:47;;;;;;;17.25;7.82;;;2.20;99.90;;;;;;5097839;28;20035;-67
2020/12/04 00:36:14;;;;;;;14.27;5.97;;;2.20;99.90;;;;;;5096378;28;20048;-67
2020/12/04 00:38:42;;;;;;;16.70;7.70;;;2.30;99.90;;;;;;5097682;28;20046;-67
2020/12/04 00:41:10;;;;;;;16.33;7.53;;;2.30;99.90;;;;;;5097972;28;20020;-67
2020/12/04 00:43:38;;;;;;;15.60;6.00;;;2.30;99.90;;;;;;5097389;28;20028;-67
2020/12/04 00:46:12;;;;;;;14.75;6.95;;;2.30;99.90;;;;;;5097873;28;20035;-67
2020/12/04 00:48:41;;;;;;;16.38;7.18;;;2.30;99.90;;;;;;5096308;28;20034;-67
2020/12/04 00:51:08;;;;;;;11.60;5.72;;;2.30;99.90;;;;;;5097161;28;20020;-67
2020/12/04 00:53:37;;;;;;;15.60;6.53;;;2.30;99.90;;;;;;5097797;28;20084;-67
2020/12/04 00:56:05;;;;;;;15.25;6.22;;;2.40;99.70;;;;;;5097214;28;20320;-67
2020/12/04 00:58:32;;;;;;;11.68;6.00;;;2.40;99.80;;;;;;5097568;28;20413;-67
2020/12/04 01:01:00;;;;;;;12.27;5.82;;;2.40;99.90;;;;;;5096014;28;20332;-67
2020/12/04 01:03:28;;;;;;;13.57;7.07;;;2.40;99.40;;;;;;5097379;28;20031;-67
2020/12/04 01:05:56;;;;;;;16.83;6.55;;;2.40;99.80;;;;;;5094002;28;20054;-67
2020/12/04 01:08:24;;;;;;;14.98;6.78;;;2.40;99.80;;;;;;5076852;28;20108;-67
2020/12/04 01:10:51;;;;;;;28.48;7.55;;;2.40;99.80;;;;;;5076673;28;20431;-67
2020/12/04 01:13:20;;;;;;;15.88;7.00;;;2.40;99.40;;;;;;5076688;28;20020;-67
2020/12/04 01:15:47;;;;;;;14.73;6.68;;;2.40;99.30;;;;;;5077198;28;20103;-67
2020/12/04 01:18:16;;;;;;;16.85;6.65;;;2.40;99.70;;;;;;5076771;28;20074;-67
2020/12/04 01:20:44;;;;;;;16.17;6.72;;;2.40;99.60;;;;;;5076518;28;20105;-67
2020/12/04 01:23:12;;;;;;;14.32;7.70;;;2.40;99.70;;;;;;5076602;28;20031;-67
2020/12/04 01:25:40;;;;;;;17.45;7.68;;;2.40;99.80;;;;;;5076068;28;20016;-67
2020/12/04 01:28:07;;;;;;;9.00;4.60;;;2.40;99.90;;;;;;5058372;28;20056;-67
2020/12/04 01:30:34;;;;;;;15.73;7.07;;;2.40;99.90;;;;;;5077045;28;20017;-67
2020/12/04 01:33:02;;;;;;;16.55;7.90;;;2.40;99.60;;;;;;5076921;28;20020;-67
2020/12/04 01:35:30;;;;;;;15.73;7.55;;;2.40;99.40;;;;;;5058573;28;20021;-67
2020/12/04 01:37:57;;;;;;;16.00;7.05;;;2.40;99.70;;;;;;5076423;28;20320;-67
2020/12/04 01:40:25;;;;;;;19.75;8.45;;;2.40;99.50;;;;;;5058627;28;20046;-67
2020/12/04 01:42:53;;;;;;;13.85;6.53;;;2.40;99.70;;;;;;5076433;28;20371;-67
2020/12/04 01:45:21;;;;;;;16.10;7.80;;;2.40;99.70;;;;;;5076311;28;20032;-67
2020/12/04 01:47:48;;;;;;;15.75;6.88;;;2.40;99.50;;;;;;5076391;28;20048;-67
2020/12/04 01:50:17;;;;;;;13.95;5.63;;;2.40;99.70;;;;;;5076157;28;20017;-67
2020/12/04 01:52:44;;;;;;;14.77;7.10;;;2.40;99.80;;;;;;5058544;28;20021;-67
2020/12/04 01:55:12;;;;;;;17.80;7.68;;;2.40;99.70;;;;;;5076142;28;20025;-67
2020/12/04 01:57:44;;;;;;;17.15;7.85;;;2.40;99.80;;;;;;5076938;28;20024;-67
2020/12/04 02:00:12;;;;;;;18.15;7.78;;;2.50;99.90;;;;;;5076212;28;20021;-67
2020/12/04 02:02:44;;;;;;;14.52;7.30;;;2.50;99.90;;;;;;5076220;28;20058;-67
2020/12/04 02:05:12;;;;;;;18.15;7.70;;;2.50;99.90;;;;;;5076105;28;20328;-67
2020/12/04 02:10:50;;;;;;;18.13;7.13;;;2.50;99.90;;;;;;5056821;28;20170;-67
2020/12/04 02:13:19;;;;;;;16.13;7.82;;;2.50;99.90;;;;;;5076104;28;20024;-67
2020/12/04 02:15:46;;;;;;;18.55;7.10;;;2.50;99.90;;;;;;5076055;28;20325;-67
2020/12/04 02:18:15;;;;;;;15.52;7.07;;;2.50;99.80;;;;;;5076481;28;20029;-67
2020/12/04 02:20:43;;;;;;;10.70;5.38;;;2.50;99.70;;;;;;5075882;28;20025;-67
2020/12/04 02:23:14;;;;;;;14.32;6.13;;;2.50;99.80;;;;;;5076521;28;20024;-67
2020/12/04 02:25:42;;;;;;;14.05;6.93;;;2.50;99.90;;;;;;5076537;28;20031;-67
2020/12/04 02:28:11;;;;;;;17.20;6.88;;;2.60;99.40;;;;;;5075983;28;20024;-67
2020/12/04 02:30:38;;;;;;;15.10;6.78;;;2.60;99.50;;;;;;5075906;28;20044;-67
2020/12/04 02:33:06;;;;;;;12.95;5.97;;;2.60;99.50;;;;;;5075840;28;20313;-67
2020/12/04 02:35:34;;;;;;;14.80;7.15;;;2.60;99.70;;;;;;5075777;28;20013;-67
2020/12/04 02:38:02;;;;;;;16.75;7.88;;;2.60;99.50;;;;;;5077540;28;20476;-67
2020/12/04 02:40:30;;;;;;;18.15;8.07;;;2.60;99.40;;;;;;5079986;28;20024;-67
2020/12/04 02:42:58;;;;;;;15.63;7.30;;;2.60;99.50;;;;;;5079462;28;20025;-67
2020/12/04 02:45:25;;;;;;;13.98;7.05;;;2.60;99.50;;;;;;5079914;28;20027;-67
2020/12/04 02:47:53;;;;;;;14.57;6.65;;;2.60;99.70;;;;;;5061531;28;20081;-67
2020/12/04 02:50:20;;;;;;;15.05;7.60;;;2.70;99.50;;;;;;5061483;28;20328;-66
2020/12/04 02:52:48;;;;;;;15.70;7.10;;;2.70;99.40;;;;;;5079842;28;20016;-67
2020/12/04 02:55:15;;;;;;;13.68;6.60;;;2.70;99.70;;;;;;5079760;28;20016;-67
2020/12/04 02:57:43;;;;;;;15.38;7.13;;;2.70;99.30;;;;;;5079659;28;20059;-67
2020/12/04 03:00:12;;;;;;;14.07;7.05;;;2.70;99.40;;;;;;5078995;28;20036;-67
2020/12/04 03:02:40;;;;;;;12.25;6.45;;;2.70;99.00;;;;;;5079519;28;20379;-67
2020/12/04 03:05:08;;;;;;;12.23;5.80;;;2.70;99.20;;;;;;5061254;28;20032;-67
2020/12/04 03:07:37;;;;;;;14.68;6.70;;;2.70;99.00;;;;;;5088406;28;20075;-67
2020/12/04 03:10:09;;;;;;;15.50;7.50;;;2.70;98.90;;;;;;5099233;28;20036;-67
2020/12/04 03:12:41;;;;;;;13.95;6.82;;;2.80;99.00;;;;;;5099410;28;20016;-67
2020/12/04 03:15:09;;;;;;;15.27;6.97;;;2.80;98.90;;;;;;5099126;28;20030;-67
2020/12/04 03:17:37;;;;;;;15.13;6.80;;;2.80;98.80;;;;;;5099161;28;20024;-67
2020/12/04 03:20:05;;;;;;;13.50;6.68;;;2.80;98.80;;;;;;5099049;28;20028;-67
2020/12/04 03:22:33;;;;;;;13.88;6.68;;;2.80;98.50;;;;;;5099162;28;20084;-67
2020/12/04 03:25:01;;;;;;;14.48;7.15;;;2.80;98.60;;;;;;5098973;28;20038;-67
2020/12/04 03:27:28;;;;;;;13.25;6.53;;;2.80;98.70;;;;;;5098871;28;20100;-67
2020/12/04 03:29:56;;;;;;;12.93;6.10;;;2.80;98.80;;;;;;5097934;28;20020;-67
2020/12/04 03:32:24;;;;;;;15.57;7.30;;;2.80;98.80;;;;;;5098995;28;20099;-67
2020/12/04 03:34:51;;;;;;;14.32;7.00;;;2.80;98.70;;;;;;5098767;28;20024;-67
2020/12/04 03:37:21;;;;;;;14.65;6.50;;;2.80;98.90;;;;;;5099184;28;20016;-67
2020/12/04 03:39:49;;;;;;;17.08;6.90;;;2.80;98.80;;;;;;5098674;28;20048;-66
2020/12/04 03:42:17;;;;;;;14.13;6.75;;;2.80;98.90;;;;;;5098743;28;20012;-66
2020/12/04 03:44:45;;;;;;;13.23;6.10;;;2.80;99.00;;;;;;5099142;28;20085;-67
2020/12/04 03:47:13;;;;;;;18.02;7.40;;;2.80;98.80;;;;;;5098980;28;20349;-67
2020/12/04 03:49:41;;;;;;;12.75;6.47;;;2.80;98.50;;;;;;5097597;28;20328;-67
2020/12/04 03:52:10;;;;;;;14.45;7.07;;;2.80;99.00;;;;;;5098575;28;20020;-67
2020/12/04 03:54:38;;;;;;;18.30;7.65;;;2.80;99.00;;;;;;5098371;28;20028;-67
2020/12/04 03:57:06;;;;;;;14.65;6.57;;;2.80;99.00;;;;;;5098373;28;20125;-67
2020/12/04 03:59:34;;;;;;;14.98;6.93;;;2.80;98.90;;;;;;5098512;28;20077;-67
2020/12/04 04:02:01;;;;;;;16.52;6.53;;;2.80;99.30;;;;;;5098197;28;20016;-67
2020/12/04 04:04:29;;;;;;;17.55;7.78;;;2.80;99.20;;;;;;5098738;28;20020;-66
2020/12/04 04:06:56;;;;;;;14.95;6.85;;;2.80;99.30;;;;;;5088069;28;20037;-67
2020/12/04 04:09:23;;;;;;;13.30;5.93;;;2.80;99.30;;;;;;5077710;28;20025;-67
2020/12/04 04:11:51;;;;;;;14.30;7.38;;;2.80;99.80;;;;;;5060255;28;20021;-67
2020/12/04 04:14:19;;;;;;;15.77;7.35;;;2.80;99.50;;;;;;5078239;28;20025;-67
2020/12/04 04:16:47;;;;;;;15.90;7.05;;;2.80;99.60;;;;;;5078060;28;20025;-67
2020/12/04 04:19:15;;;;;;;15.50;7.15;;;2.80;99.70;;;;;;5077556;28;20020;-67
2020/12/04 04:21:43;;;;;;;13.80;7.53;;;2.80;99.70;;;;;;5078075;28;20031;-67
2020/12/04 04:24:10;;;;;;;15.95;7.90;;;2.80;99.40;;;;;;5077463;28;20021;-67
2020/12/04 04:26:38;;;;;;;16.55;7.72;;;2.70;99.60;;;;;;5077609;28;20420;-67
2020/12/04 04:29:06;;;;;;;17.05;7.65;;;2.80;99.80;;;;;;5077283;28;20031;-67
2020/12/04 04:31:33;;;;;;;18.15;8.02;;;2.70;99.90;;;;;;5059619;28;20067;-67
2020/12/04 04:34:01;;;;;;;15.30;7.63;;;2.80;99.80;;;;;;5077274;28;20024;-67
2020/12/04 04:36:30;;;;;;;11.30;6.13;;;2.80;99.70;;;;;;5077892;28;20025;-67
2020/12/04 04:38:58;;;;;;;15.73;7.25;;;2.80;99.50;;;;;;5077226;28;20036;-67
2020/12/04 04:41:26;;;;;;;16.77;7.80;;;2.80;99.50;;;;;;5077207;28;20047;-67
2020/12/04 04:43:54;;;;;;;17.75;8.07;;;2.80;99.90;;;;;;5077651;28;20016;-67
2020/12/04 04:46:47;;;;;;;19.20;7.63;;;2.80;99.90;;;;;;5077262;28;20023;-67
2020/12/04 04:49:29;;;;;;;11.25;5.72;;;2.80;99.50;;;;;;5077211;28;20052;-67
2020/12/04 04:51:57;;;;;;;17.00;7.93;;;2.80;99.70;;;;;;5077130;28;20017;-67
2020/12/04 04:54:26;;;;;;;15.50;7.55;;;2.80;99.80;;;;;;5076816;28;20324;-67
2020/12/04 04:56:54;;;;;;;14.73;7.10;;;2.80;99.90;;;;;;5077067;28;20021;-67
2020/12/04 04:59:22;;;;;;;15.35;7.18;;;2.90;99.80;;;;;;5076843;28;20036;-67
2020/12/04 05:01:51;;;;;;;11.15;5.05;;;2.80;99.80;;;;;;5076790;28;20027;-67
2020/12/04 05:04:18;;;;;;;17.30;7.20;;;2.90;99.80;;;;;;5076817;28;20103;-67
2020/12/04 05:06:46;;;;;;;19.02;8.00;;;2.90;99.90;;;;;;5072315;28;20048;-67
2020/12/04 05:09:29;;;;;;;14.40;7.10;;;2.90;99.90;;;;;;5096935;28;20032;-67
2020/12/04 05:12:00;;;;;;;16.23;6.95;;;2.80;99.90;;;;;;5097065;28;20020;-67
2020/12/04 05:14:29;;;;;;;17.38;6.65;;;2.80;99.90;;;;;;5095900;28;20331;-67
2020/12/04 05:16:58;;;;;;;12.40;6.05;;;2.90;99.90;;;;;;5095914;28;20028;-67
2020/12/04 05:19:41;;;;;;;23.08;8.57;;;2.90;99.90;;;;;;5097384;28;20316;-67
2020/12/04 05:22:27;;;;;;;13.95;5.32;;;2.90;99.90;;;;;;5096823;28;20103;-67
2020/12/04 05:24:54;;;;;;;18.38;7.45;;;2.90;99.90;;;;;;5097393;28;20036;-67
2020/12/04 05:27:26;;;;;;;14.93;7.53;;;2.90;99.90;;;;;;5097383;28;20024;-67
2020/12/04 05:29:55;;;;;;;16.67;7.38;;;2.90;99.90;;;;;;5097289;28;20365;-67
2020/12/04 05:32:24;;;;;;;17.52;8.55;;;2.90;99.90;;;;;;5097433;28;20062;-67
2020/12/04 05:35:05;;;;;;;14.70;6.28;;;2.90;99.90;;;;;;5096659;28;20408;-67
2020/12/04 05:37:32;;;;;;;12.77;5.30;;;2.90;99.90;;;;;;5096632;28;20024;-67
2020/12/04 05:40:00;;;;;;;16.27;7.15;;;2.90;99.90;;;;;;5096625;28;20027;-67
2020/12/04 05:42:37;;;;;;;15.32;7.60;;;2.90;99.90;;;;;;5097063;28;20032;-67
2020/12/04 05:45:06;;;;;;;14.70;7.25;;;2.90;99.90;;;;;;5096562;28;20103;-67
2020/12/04 05:47:41;;;;;;;11.70;5.65;;;2.90;99.90;;;;;;5096768;28;20107;-67
2020/12/04 05:50:11;;;;;;;16.55;8.25;;;2.90;99.90;;;;;;5096549;28;20016;-67
2020/12/04 05:52:39;;;;;;;18.60;7.53;;;2.90;99.90;;;;;;5097243;28;20022;-67
2020/12/04 05:55:11;;;;;;;15.95;7.07;;;2.90;99.90;;;;;;5096518;28;20023;-67
2020/12/04 05:58:00;;;;;;;14.98;7.85;;;2.90;99.90;;;;;;5097068;28;20020;-66
2020/12/04 06:00:27;;;;;;;14.85;7.20;;;2.90;99.90;;;;;;5096458;28;20078;-67
2020/12/04 06:03:02;;;;;;;12.73;6.53;;;3.00;99.90;;;;;;5096735;28;20020;-67
2020/12/04 06:05:31;;;;;;;14.23;6.70;;;3.00;99.90;;;;;;5096338;28;20020;-67
2020/12/04 06:08:03;;;;;;;15.40;7.10;;;3.00;99.90;;;;;;5077932;28;20441;-67
2020/12/04 06:10:33;;;;;;;9.88;4.57;;;3.00;99.90;;;;;;5076353;28;20039;-67
2020/12/04 06:13:02;;;;;;;17.33;7.60;;;3.00;99.90;;;;;;5077850;28;20328;-67
2020/12/04 06:15:31;;;;;;;17.25;7.43;;;3.00;99.90;;;;;;5079921;28;20416;-67
2020/12/04 06:18:06;;;;;;;14.38;7.40;;;3.10;99.90;;;;;;5080455;28;20025;-67
2020/12/04 06:20:48;;;;;;;13.63;6.95;;;3.10;99.90;;;;;;5079838;28;20104;-67
2020/12/04 06:23:21;;;;;;;20.45;7.82;;;3.10;99.90;;;;;;5080578;28;20104;-67
2020/12/04 06:25:53;;;;;;;16.30;6.90;;;3.10;99.90;;;;;;5079759;28;20017;-67
2020/12/04 06:28:23;;;;;;;16.27;7.65;;;3.20;99.90;;;;;;5080144;28;20028;-67
2020/12/04 06:31:04;;;;;;;20.83;7.30;;;3.20;99.90;;;;;;5079580;28;20051;-67
2020/12/04 06:33:44;;;;;;;10.40;5.05;;;3.20;99.90;;;;;;5080306;28;20020;-67
2020/12/04 06:36:33;;;;;;;13.90;6.55;;;3.20;99.90;;;;;;5079482;28;20023;-67
2020/12/04 06:39:02;;;;;;;13.02;6.70;;;3.30;99.90;;;;;;5061734;28;20024;-67
2020/12/04 06:41:35;;;;;;;12.25;6.18;;;3.30;99.90;;;;;;5061838;28;20034;-67
2020/12/04 06:44:19;;;;;;;15.48;6.72;;;3.30;99.90;;;;;;5061574;28;20025;-67
2020/12/04 06:46:57;;;;;;;10.80;5.70;;;3.30;99.90;;;;;;5061621;28;20082;-67
2020/12/04 06:49:40;;;;;;;13.43;5.68;;;3.40;99.90;;;;;;5061392;28;20321;-66
2020/12/04 06:52:20;;;;;;;8.90;4.55;;;3.40;99.90;;;;;;5079488;28;20020;-67
2020/12/04 06:54:49;;;;;;;12.80;5.43;;;3.50;99.90;;;;;;5079272;28;20027;-67
2020/12/04 06:57:25;;;;;;;11.75;5.18;;;3.50;99.90;;;;;;5079123;28;20363;-67
2020/12/04 06:59:52;;;;;;;9.38;4.88;;;3.50;99.90;;;;;;5079434;28;20021;-67
2020/12/04 07:02:22;;;;;;;13.73;6.45;;;3.50;99.90;;;;;;5079664;28;20066;-67
2020/12/04 07:04:52;;;;;;;12.35;6.32;;;3.60;99.90;;;;;;5079642;28;20016;-67
2020/12/04 07:07:21;;;;;;;15.27;5.55;;;3.60;99.90;;;;;;5078848;28;20037;-67
2020/12/04 07:10:04;;;;;;;13.90;6.43;;;3.60;99.90;;;;;;5078914;28;20021;-67
2020/12/04 07:12:33;;;;;;;11.90;5.70;;;3.60;99.90;;;;;;5078910;28;20044;-67
2020/12/04 07:15:01;;;;;;;12.30;5.90;;;3.60;99.90;;;;;;5078390;28;20051;-67
2020/12/04 07:17:30;;;;;;;12.02;6.43;;;3.60;99.90;;;;;;5079561;28;20024;-67
2020/12/04 07:20:02;;;;;;;10.45;5.20;;;3.70;99.90;;;;;;5079052;28;20028;-67
2020/12/04 07:22:29;;;;;;;13.85;6.40;;;3.70;99.90;;;;;;5060960;28;20043;-67
2020/12/04 07:24:57;;;;;;;11.07;5.68;;;3.70;99.90;;;;;;5078048;28;20048;-67
2020/12/04 07:27:29;;;;;;;9.15;4.30;;;3.80;99.90;;;;;;5078493;28;20353;-67
2020/12/04 07:29:57;;;;;;;13.35;6.20;;;3.90;99.90;;;;;;5078866;28;20059;-67
2020/12/04 07:32:26;;;;;;;10.32;5.32;;;3.90;99.90;;;;;;5078699;28;20040;-66
2020/12/04 07:34:54;;;;;;;9.95;5.30;;;3.90;99.90;;;;;;5078408;28;20028;-66
2020/12/04 07:37:29;;;;;;;11.85;5.78;;;3.90;99.90;;;;;;5078396;28;20027;-66
2020/12/04 07:39:56;;;;;;;10.65;5.30;;;4.00;99.90;;;;;;5060636;28;20367;-66
2020/12/04 07:42:24;;;;;;;8.93;4.15;;;4.00;99.90;;;;;;5078696;28;20027;-66
2020/12/04 07:44:53;;;;;;;9.35;4.78;;;4.00;99.90;;;;;;5078294;28;20141;-66
2020/12/04 07:47:21;;;;;;;10.30;4.82;;;4.10;99.90;;;;;;5078149;28;20020;-66
2020/12/04 07:50:00;;;;;;;11.52;4.60;;;4.10;99.90;;;;;;5078738;28;20321;-67
2020/12/04 07:52:33;;;;;;;9.15;4.63;;;4.10;99.90;;;;;;5078489;28;20074;-66
2020/12/04 07:55:14;;;;;;;10.10;5.10;;;4.20;99.90;;;;;;5078139;28;20074;-66
2020/12/04 07:57:50;;;;;;;9.43;4.38;;;4.30;99.90;;;;;;5077943;28;20036;-70
2020/12/04 08:00:18;;;;;;;8.38;4.50;;;4.30;99.90;;;;;;5077927;28;20052;-69
2020/12/04 08:02:46;;;;;;;11.93;5.28;;;4.30;99.90;;;;;;5060362;28;20447;-70
2020/12/04 08:05:24;;;;;;;9.43;4.25;;;4.40;99.90;;;;;;5060067;28;20132;-70
2020/12/04 08:07:53;;;;;;;9.82;4.13;;;4.40;99.90;;;;;;5077813;28;20094;-70
2020/12/04 08:10:21;;;;;;;6.22;3.10;;;4.40;99.90;;;;;;5060034;28;20020;-70
2020/12/04 08:12:50;;;;;;;8.55;4.75;;;4.50;99.90;;;;;;5059913;28;20440;-70
2020/12/04 08:15:20;;;;;;;6.65;3.65;;;4.50;99.90;;;;;;5077590;28;20032;-70
2020/12/04 08:18:01;;;;;;;8.05;3.17;;;4.50;99.90;;;;;;5060859;28;20066;-70
2020/12/04 08:20:29;;;;;;;6.68;3.22;;;4.60;99.90;;;;;;5077329;28;20054;-73
2020/12/04 08:22:56;;;;;;;6.65;3.28;;;4.60;99.90;;;;;;5078068;28;20061;-69
2020/12/04 08:25:25;;;;;;;6.72;3.75;;;4.60;99.90;;;;;;5078020;28;20027;-70
2020/12/04 08:27:53;;;;;;;8.70;3.90;;;4.70;99.90;;;;;;5059653;28;20025;-70
2020/12/04 08:30:23;;;;;;;10.27;4.50;;;4.80;99.90;;;;;;5078016;28;20017;-70
2020/12/04 08:32:54;;;;;;;8.40;3.25;;;4.70;99.90;;;;;;5077331;28;20027;-70
2020/12/04 08:35:40;;;;;;;7.93;3.60;;;4.80;99.90;;;;;;5077402;28;20021;-70
2020/12/04 08:38:16;;;;;;;6.63;3.92;;;4.80;99.90;;;;;;5077740;28;20024;-67
2020/12/04 08:40:50;;;;;;;6.95;3.35;;;4.80;99.90;;;;;;5077453;28;20333;-70
2020/12/04 08:43:22;;;;;;;6.95;3.42;;;4.90;99.90;;;;;;5077117;28;20115;-68
2020/12/04 08:45:56;;;;;;;6.28;3.35;;;4.90;99.90;;;;;;5077068;28;20024;-68
2020/12/04 08:48:29;;;;;;;7.75;2.97;;;4.90;99.90;;;;;;5076936;28;20036;-66
2020/12/04 08:51:03;;;;;;;6.78;4.05;;;4.90;99.90;;;;;;5077588;28;20035;-66
2020/12/04 08:53:31;;;;;;;6.78;3.50;;;4.90;99.90;;;;;;5076934;28;20025;-66
2020/12/04 08:56:00;;;;;;;6.57;3.10;;;4.90;99.90;;;;;;5077440;28;20289;-66
2020/12/04 08:58:29;;;;;;;8.13;3.92;;;5.00;99.90;;;;;;5076845;28;20050;-66
2020/12/04 09:00:58;;;;;;;4.78;2.60;;;5.00;99.90;;;;;;5077399;28;20055;-66
2020/12/04 09:03:26;;;;;;;6.63;3.33;;;5.00;99.90;;;;;;5076793;28;20029;-67
2020/12/04 09:05:57;;;;;;;8.82;3.45;;;5.00;99.90;;;;;;5077372;28;20028;-67
2020/12/04 09:08:25;;;;;;;7.47;3.35;;;5.10;99.90;;;;;;5076976;28;20036;-67
2020/12/04 09:10:53;;;;;;;9.60;3.55;;;5.10;99.90;;;;;;5076751;28;20046;-67
2020/12/04 09:13:21;;;;;;;7.75;3.85;;;5.10;99.90;;;;;;5076650;28;20020;-67
2020/12/04 09:15:49;;;;;;;7.20;3.17;;;5.10;99.90;;;;;;5077204;28;20100;-67
2020/12/04 09:18:17;;;;;;;7.15;3.58;;;5.20;99.90;;;;;;5058988;28;20051;-67
2020/12/04 09:20:44;;;;;;;6.80;3.92;;;5.20;99.90;;;;;;5077074;28;20022;-68
2020/12/04 09:23:12;;;;;;;8.95;4.13;;;5.20;99.90;;;;;;5076463;28;20016;-67
2020/12/04 09:25:39;;;;;;;8.02;3.17;;;5.30;99.90;;;;;;5077030;28;20028;-67
2020/12/04 09:28:07;;;;;;;6.47;3.47;;;5.30;99.90;;;;;;5076899;28;20024;-66
2020/12/04 09:30:34;;;;;;;5.78;3.15;;;5.30;99.90;;;;;;5077019;28;20024;-67
2020/12/04 09:33:02;;;;;;;8.50;3.95;;;5.40;99.90;;;;;;5076942;28;20017;-65
2020/12/04 09:35:29;;;;;;;8.02;4.03;;;5.40;99.90;;;;;;5076281;28;20052;-65
2020/12/04 09:37:56;;;;;;;7.03;3.42;;;5.40;99.90;;;;;;5076388;28;20044;-66
2020/12/04 09:40:24;;;;;;;7.10;3.63;;;5.50;99.90;;;;;;5076278;28;20324;-67
2020/12/04 09:42:52;;;;;;;6.10;3.53;;;5.50;99.90;;;;;;5076396;28;20024;-66
2020/12/04 09:45:19;;;;;;;5.90;3.22;;;5.50;99.90;;;;;;5076714;28;20024;-65
2020/12/04 09:47:46;;;;;;;6.22;3.63;;;5.50;99.90;;;;;;5077601;28;20028;-66
2020/12/04 09:50:15;;;;;;;5.55;2.65;;;5.60;99.90;;;;;;5081041;28;20017;-67
2020/12/04 09:52:43;;;;;;;10.35;3.38;;;5.60;99.90;;;;;;5080388;28;20095;-67
2020/12/04 09:55:13;;;;;;;7.93;3.28;;;5.60;99.90;;;;;;5080329;28;20025;-66
2020/12/04 09:57:40;;;;;;;6.13;3.40;;;5.70;99.90;;;;;;5080321;28;20021;-67
2020/12/04 10:00:09;;;;;;;7.70;3.10;;;5.70;99.90;;;;;;5080683;28;20024;-67
2020/12/04 10:02:37;;;;;;;6.35;3.28;;;5.70;99.90;;;;;;5062379;28;20035;-67
2020/12/04 10:05:06;;;;;;;7.07;3.90;;;5.70;99.90;;;;;;5080098;28;20032;-67
2020/12/04 10:07:34;;;;;;;5.65;2.78;;;5.80;99.90;;;;;;5079976;28;20421;-67
2020/12/04 10:10:04;;;;;;;7.05;3.20;;;5.80;99.90;;;;;;5062287;28;20028;-67
2020/12/04 10:12:32;;;;;;;5.55;3.13;;;5.90;99.90;;;;;;5062225;28;20420;-66
2020/12/04 10:15:00;;;;;;;4.88;2.80;;;5.90;99.90;;;;;;5080544;28;20031;-67
2020/12/04 10:17:28;;;;;;;8.32;2.90;;;5.90;99.90;;;;;;5079952;28;20013;-66
2020/12/04 10:19:55;;;;;;;8.55;3.33;;;6.00;99.90;;;;;;5080482;28;20028;-67
2020/12/04 10:22:24;;;;;;;8.98;2.80;;;6.00;99.90;;;;;;5080102;28;20142;-66
2020/12/04 10:24:52;;;;;;;6.80;2.83;;;6.00;99.90;;;;;;5080292;28;20020;-66
2020/12/04 10:27:20;;;;;;;5.55;2.38;;;6.10;99.90;;;;;;5080253;28;20024;-66
2020/12/04 10:29:49;;;;;;;5.07;2.58;;;6.10;99.90;;;;;;5061789;28;20432;-66
2020/12/04 10:32:17;;;;;;;5.43;2.70;;;6.20;99.90;;;;;;5061872;28;20386;-66
2020/12/04 10:34:46;;;;;;;5.22;2.78;;;6.30;99.90;;;;;;5079437;28;20028;-66
2020/12/04 10:37:14;;;;;;;5.32;2.65;;;6.30;99.90;;;;;;5079580;28;20055;-67
2020/12/04 10:39:42;;;;;;;7.70;4.28;;;6.30;99.90;;;;;;5080017;28;20013;-67
2020/12/04 10:42:09;;;;;;;5.20;2.90;;;6.40;99.90;;;;;;5080206;28;20085;-66
2020/12/04 10:44:37;;;;;;;6.43;3.15;;;6.50;99.90;;;;;;5061606;28;20316;-67
2020/12/04 10:47:05;;;;;;;7.70;2.75;;;6.50;99.90;;;;;;5079972;28;20028;-67
2020/12/04 10:49:32;;;;;;;4.88;2.70;;;6.60;99.90;;;;;;5061523;28;20125;-67
2020/12/04 10:52:00;;;;;;;5.53;3.10;;;6.70;99.90;;;;;;5079828;28;20044;-67
2020/12/04 10:54:28;;;;;;;5.65;2.72;;;6.70;99.90;;;;;;5079849;28;20427;-66
2020/12/04 10:56:56;;;;;;;6.22;3.10;;;6.70;99.90;;;;;;5079152;28;20032;-67
2020/12/04 10:59:24;;;;;;;5.97;2.63;;;6.70;99.90;;;;;;5079220;28;20025;-66
2020/12/04 11:01:58;;;;;;;11.38;4.13;;;6.70;99.90;;;;;;5079885;28;20016;-66
2020/12/04 11:07:13;;;;;;;12.50;4.45;;;6.60;99.90;;;;;;5079023;28;20054;-67
2020/12/04 11:09:42;;;;;;;7.80;2.78;;;6.60;99.90;;;;;;5078906;28;20035;-66
2020/12/04 11:12:10;;;;;;;5.72;2.80;;;6.60;99.90;;;;;;5078923;28;20054;-66
2020/12/04 11:14:43;;;;;;;5.53;2.65;;;6.70;99.90;;;;;;5061138;28;20024;-67
2020/12/04 11:17:11;;;;;;;5.68;2.78;;;6.70;99.90;;;;;;5078604;28;20029;-66
2020/12/04 11:19:39;;;;;;;5.43;2.65;;;6.70;99.90;;;;;;5078798;28;20378;-66
2020/12/04 11:22:07;;;;;;;6.38;2.38;;;6.70;99.90;;;;;;5078643;28;20405;-66
2020/12/04 11:24:35;;;;;;;5.00;2.80;;;6.80;99.90;;;;;;5044305;28;20035;-67
2020/12/04 11:27:02;;;;;;;5.10;2.80;;;6.80;99.90;;;;;;5079157;28;20024;-67
2020/12/04 11:29:30;;;;;;;8.02;3.40;;;6.80;99.90;;;;;;5079062;28;20069;-67
2020/12/04 11:31:58;;;;;;;5.68;2.72;;;6.80;99.90;;;;;;5078580;28;20032;-67
2020/12/04 11:34:26;;;;;;;4.53;2.22;;;6.90;99.90;;;;;;5079041;28;20112;-66
2020/12/04 11:36:53;;;;;;;5.75;2.53;;;6.90;99.90;;;;;;5060613;28;20103;-66
2020/12/04 11:39:21;;;;;;;5.47;2.60;;;7.00;99.90;;;;;;5078454;28;20157;-66
2020/12/04 11:41:51;;;;;;;4.43;2.15;;;6.90;99.90;;;;;;5060555;28;20037;-66
2020/12/04 11:44:21;;;;;;;5.85;2.72;;;7.00;99.90;;;;;;5079091;28;20027;-67
2020/12/04 11:46:52;;;;;;;7.05;2.97;;;7.00;99.90;;;;;;5079087;28;20294;-67
2020/12/04 11:49:20;;;;;;;4.97;2.42;;;7.10;99.90;;;;;;5078109;28;20027;-67
2020/12/04 11:51:48;;;;;;;6.30;2.97;;;7.10;99.90;;;;;;5078165;28;20016;-66
2020/12/04 11:54:16;;;;;;;5.32;2.33;;;7.10;99.90;;;;;;5078622;28;20021;-66
2020/12/04 11:56:48;;;;;;;6.10;2.88;;;7.10;99.90;;;;;;5078140;28;20024;-66
2020/12/04 11:59:16;;;;;;;5.15;2.17;;;7.10;99.90;;;;;;5078613;28;20107;-66
2020/12/04 12:01:43;;;;;;;7.90;2.92;;;7.20;99.70;;;;;;5078648;28;20099;-66
2020/12/04 12:04:18;;;;;;;8.63;2.83;;;7.20;99.90;;;;;;5077875;28;20074;-67
2020/12/04 12:06:46;;;;;;;6.68;2.92;;;7.30;99.90;;;;;;5077890;28;20138;-67
2020/12/04 12:09:14;;;;;;;5.60;2.90;;;7.30;99.90;;;;;;5060116;28;20078;-68
2020/12/04 12:11:41;;;;;;;5.78;2.63;;;7.40;99.90;;;;;;5077401;28;20024;-67
2020/12/04 12:14:09;;;;;;;7.47;2.70;;;7.40;99.90;;;;;;5077716;28;20131;-67
2020/12/04 12:16:37;;;;;;;8.30;3.17;;;7.40;99.90;;;;;;5077767;28;20021;-68
2020/12/04 12:19:05;;;;;;;5.82;2.50;;;7.40;99.90;;;;;;5077614;28;20031;-68
2020/12/04 12:21:35;;;;;;;5.60;2.38;;;7.40;99.90;;;;;;5077473;28;20033;-69
2020/12/04 12:24:04;;;;;;;8.45;3.17;;;7.40;99.90;;;;;;5077832;28;20480;-68
2020/12/04 12:26:31;;;;;;;8.25;3.10;;;7.50;99.90;;;;;;5077495;28;20150;-67
2020/12/04 12:28:59;;;;;;;8.52;3.28;;;7.50;99.90;;;;;;5059504;28;20458;-66
2020/12/04 12:31:27;;;;;;;10.98;4.93;;;7.50;99.20;;;;;;5077623;28;20037;-67
2020/12/04 12:33:56;;;;;;;15.82;3.85;;;7.60;99.80;;;;;;5077316;28;20021;-68
2020/12/04 12:36:24;;;;;;;23.52;8.75;;;7.60;99.90;;;;;;5077386;28;20446;-65
2020/12/04 12:38:57;;;;;;;12.30;3.28;;;7.60;99.70;;;;;;5077304;28;20024;-66
2020/12/04 12:41:26;;;;;;;8.88;2.92;;;7.70;99.00;;;;;;5076998;28;20099;-66
2020/12/04 12:43:54;;;;;;;6.07;3.08;;;7.70;98.70;;;;;;5077679;28;20111;-64
2020/12/04 12:46:22;;;;;;;11.48;3.33;;;7.70;98.90;;;;;;5077926;28;20373;-66
2020/12/04 12:48:51;;;;;;;6.80;2.88;;;7.70;98.40;;;;;;5077861;28;20021;-66
2020/12/04 12:51:18;;;;;;;9.43;3.42;;;7.70;99.10;;;;;;5076943;28;20020;-65
2020/12/04 12:53:46;;;;;;;7.30;3.10;;;7.70;98.50;;;;;;5076946;28;20048;-66
2020/12/04 12:56:14;;;;;;;8.65;2.40;;;7.70;99.10;;;;;;5076903;28;20329;-66
2020/12/04 12:58:41;;;;;;;10.73;3.75;;;7.70;99.30;;;;;;5076913;28;20020;-66
2020/12/04 13:01:09;;;;;;;7.20;2.75;;;7.70;99.70;;;;;;5077109;28;20408;-66
2020/12/04 13:03:37;;;;;;;7.22;3.35;;;7.60;99.20;;;;;;5077376;28;20039;-66
2020/12/04 13:06:04;;;;;;;5.93;2.97;;;7.70;99.50;;;;;;5077191;28;20024;-67
2020/12/04 13:08:33;;;;;;;8.43;3.15;;;7.60;99.50;;;;;;5077076;28;20066;-66